sensor_id;sensor_type;location;lat;lon;timestamp;P1;durP1;ratioP1;P2;durP2;ratioP2
80698;SDS011;70062;51.658;5.658;2024-01-30T00:18:06;10.00;;;6.10;;
80698;SDS011;70062;51.658;5.658;2024-01-30T00:21:23;11.90;;;6.20;;
80698;SDS011;70062;51.658;5.658;2024-01-30T00:24:54;11.80;;;6.70;;
80698;SDS011;70062;51.658;5.658;2024-01-30T00:28:30;10.40;;;6.20;;
80698;SDS011;70062;51.658;5.658;2024-01-30T00:31:54;12.20;;;6.00;;
80698;SDS011;70062;51.658;5.658;2024-01-30T00:35:20;11.40;;;6.10;;
80698;SDS011;70062;51.658;5.658;2024-01-30T00:38:52;12.50;;;6.70;;
80698;SDS011;70062;51.658;5.658;2024-01-30T01:16:15;14.40;;;7.30;;
80698;SDS011;70062;51.658;5.658;2024-01-30T01:19:42;11.20;;;6.00;;
80698;SDS011;70062;51.658;5.658;2024-01-30T01:23:16;11.30;;;6.20;;
80698;SDS011;70062;51.658;5.658;2024-01-30T01:26:41;11.70;;;6.40;;
80698;SDS011;70062;51.658;5.658;2024-01-30T01:30:13;9.40;;;5.80;;
80698;SDS011;70062;51.658;5.658;2024-01-30T01:33:44;11.40;;;6.20;;
80698;SDS011;70062;51.658;5.658;2024-01-30T01:37:11;13.30;;;6.10;;
80698;SDS011;70062;51.658;5.658;2024-01-30T01:40:41;11.00;;;6.00;;
80698;SDS011;70062;51.658;5.658;2024-01-30T01:47:26;10.60;;;5.80;;
80698;SDS011;70062;51.658;5.658;2024-01-30T01:50:53;8.90;;;5.60;;
80698;SDS011;70062;51.658;5.658;2024-01-30T01:54:31;10.00;;;5.70;;
80698;SDS011;70062;51.658;5.658;2024-01-30T01:58:07;10.10;;;5.50;;
80698;SDS011;70062;51.658;5.658;2024-01-30T02:01:42;10.80;;;5.70;;
80698;SDS011;70062;51.658;5.658;2024-01-30T02:05:27;8.70;;;5.20;;
80698;SDS011;70062;51.658;5.658;2024-01-30T02:09:04;11.00;;;6.00;;
80698;SDS011;70062;51.658;5.658;2024-01-30T02:12:31;10.00;;;5.80;;
80698;SDS011;70062;51.658;5.658;2024-01-30T02:16:04;10.00;;;5.90;;
80698;SDS011;70062;51.658;5.658;2024-01-30T02:30:50;10.10;;;5.70;;
80698;SDS011;70062;51.658;5.658;2024-01-30T02:34:23;10.40;;;5.30;;
80698;SDS011;70062;51.658;5.658;2024-01-30T02:37:51;9.90;;;5.70;;
80698;SDS011;70062;51.658;5.658;2024-01-30T02:41:22;8.30;;;5.00;;
80698;SDS011;70062;51.658;5.658;2024-01-30T02:44:59;9.00;;;5.40;;
80698;SDS011;70062;51.658;5.658;2024-01-30T02:48:18;10.00;;;5.40;;
80698;SDS011;70062;51.658;5.658;2024-01-30T02:51:49;8.90;;;5.40;;
80698;SDS011;70062;51.658;5.658;2024-01-30T02:55:15;9.50;;;5.50;;
80698;SDS011;70062;51.658;5.658;2024-01-30T02:58:54;8.60;;;5.10;;
80698;SDS011;70062;51.658;5.658;2024-01-30T03:02:16;7.40;;;5.00;;
80698;SDS011;70062;51.658;5.658;2024-01-30T03:05:42;9.50;;;5.20;;
80698;SDS011;70062;51.658;5.658;2024-01-30T03:09:09;7.50;;;5.30;;
80698;SDS011;70062;51.658;5.658;2024-01-30T03:12:40;8.70;;;5.50;;
80698;SDS011;70062;51.658;5.658;2024-01-30T03:16:12;10.10;;;5.40;;
80698;SDS011;70062;51.658;5.658;2024-01-30T03:19:40;9.80;;;5.20;;
80698;SDS011;70062;51.658;5.658;2024-01-30T03:23:12;8.40;;;5.10;;
80698;SDS011;70062;51.658;5.658;2024-01-30T03:26:40;7.80;;;5.00;;
80698;SDS011;70062;51.658;5.658;2024-01-30T03:30:09;8.30;;;5.10;;
80698;SDS011;70062;51.658;5.658;2024-01-30T03:33:40;8.70;;;5.10;;
80698;SDS011;70062;51.658;5.658;2024-01-30T03:37:07;8.40;;;5.20;;
80698;SDS011;70062;51.658;5.658;2024-01-30T03:40:33;9.40;;;5.70;;
80698;SDS011;70062;51.658;5.658;2024-01-30T03:44:02;8.60;;;5.10;;
80698;SDS011;70062;51.658;5.658;2024-01-30T03:47:28;7.40;;;4.80;;
80698;SDS011;70062;51.658;5.658;2024-01-30T03:51:00;11.10;;;5.40;;
80698;SDS011;70062;51.658;5.658;2024-01-30T03:54:23;9.40;;;5.40;;
80698;SDS011;70062;51.658;5.658;2024-01-30T03:57:58;8.50;;;5.00;;
80698;SDS011;70062;51.658;5.658;2024-01-30T04:01:19;7.80;;;5.20;;
80698;SDS011;70062;51.658;5.658;2024-01-30T04:04:43;6.50;;;5.10;;
80698;SDS011;70062;51.658;5.658;2024-01-30T04:08:13;7.70;;;4.90;;
80698;SDS011;70062;51.658;5.658;2024-01-30T04:11:40;7.20;;;4.90;;
80698;SDS011;70062;51.658;5.658;2024-01-30T04:15:07;7.30;;;5.10;;
80698;SDS011;70062;51.658;5.658;2024-01-30T04:18:36;9.60;;;5.60;;
80698;SDS011;70062;51.658;5.658;2024-01-30T04:22:03;8.00;;;4.90;;
80698;SDS011;70062;51.658;5.658;2024-01-30T04:25:30;7.70;;;4.80;;
80698;SDS011;70062;51.658;5.658;2024-01-30T04:29:00;10.20;;;5.30;;
80698;SDS011;70062;51.658;5.658;2024-01-30T04:32:27;8.10;;;4.80;;
80698;SDS011;70062;51.658;5.658;2024-01-30T04:35:54;6.80;;;4.60;;
80698;SDS011;70062;51.658;5.658;2024-01-30T04:39:21;7.00;;;4.80;;
80698;SDS011;70062;51.658;5.658;2024-01-30T04:42:48;8.60;;;4.60;;
80698;SDS011;70062;51.658;5.658;2024-01-30T04:46:14;7.60;;;4.40;;
80698;SDS011;70062;51.658;5.658;2024-01-30T04:49:42;8.40;;;4.90;;
80698;SDS011;70062;51.658;5.658;2024-01-30T04:53:09;9.10;;;4.90;;
80698;SDS011;70062;51.658;5.658;2024-01-30T04:56:38;7.20;;;4.50;;
80698;SDS011;70062;51.658;5.658;2024-01-30T05:00:03;6.90;;;4.30;;
80698;SDS011;70062;51.658;5.658;2024-01-30T05:03:32;8.80;;;5.00;;
80698;SDS011;70062;51.658;5.658;2024-01-30T05:06:56;7.80;;;4.80;;
80698;SDS011;70062;51.658;5.658;2024-01-30T05:10:26;6.60;;;4.60;;
80698;SDS011;70062;51.658;5.658;2024-01-30T05:13:59;9.60;;;4.60;;
80698;SDS011;70062;51.658;5.658;2024-01-30T05:17:26;7.40;;;4.80;;
80698;SDS011;70062;51.658;5.658;2024-01-30T05:20:57;7.70;;;5.00;;
80698;SDS011;70062;51.658;5.658;2024-01-30T05:23:50;6.90;;;4.60;;
80698;SDS011;70062;51.658;5.658;2024-01-30T05:27:17;7.60;;;4.80;;
80698;SDS011;70062;51.658;5.658;2024-01-30T05:30:44;7.00;;;4.60;;
80698;SDS011;70062;51.658;5.658;2024-01-30T05:34:11;7.80;;;4.80;;
80698;SDS011;70062;51.658;5.658;2024-01-30T05:37:38;7.50;;;4.30;;
80698;SDS011;70062;51.658;5.658;2024-01-30T05:41:05;9.00;;;4.70;;
80698;SDS011;70062;51.658;5.658;2024-01-30T05:44:32;8.60;;;4.70;;
80698;SDS011;70062;51.658;5.658;2024-01-30T05:48:03;11.30;;;4.80;;
80698;SDS011;70062;51.658;5.658;2024-01-30T05:51:38;6.80;;;4.70;;
80698;SDS011;70062;51.658;5.658;2024-01-30T05:57:59;7.20;;;4.40;;
80698;SDS011;70062;51.658;5.658;2024-01-30T06:01:50;6.20;;;4.10;;
80698;SDS011;70062;51.658;5.658;2024-01-30T06:06:34;8.00;;;5.00;;
80698;SDS011;70062;51.658;5.658;2024-01-30T06:25:09;7.60;;;4.90;;
80698;SDS011;70062;51.658;5.658;2024-01-30T06:34:38;7.20;;;4.70;;
80698;SDS011;70062;51.658;5.658;2024-01-30T06:39:14;6.90;;;4.70;;
80698;SDS011;70062;51.658;5.658;2024-01-30T06:43:53;6.30;;;4.30;;
80698;SDS011;70062;51.658;5.658;2024-01-30T06:53:20;8.20;;;4.60;;
80698;SDS011;70062;51.658;5.658;2024-01-30T06:56:51;6.70;;;4.70;;
80698;SDS011;70062;51.658;5.658;2024-01-30T07:00:23;6.20;;;4.30;;
80698;SDS011;70062;51.658;5.658;2024-01-30T07:03:32;7.10;;;4.40;;
80698;SDS011;70062;51.658;5.658;2024-01-30T07:07:02;6.30;;;4.20;;
80698;SDS011;70062;51.658;5.658;2024-01-30T07:10:28;6.20;;;4.50;;
80698;SDS011;70062;51.658;5.658;2024-01-30T07:13:57;6.70;;;4.00;;
80698;SDS011;70062;51.658;5.658;2024-01-30T07:17:22;5.80;;;4.20;;
80698;SDS011;70062;51.658;5.658;2024-01-30T07:20:50;6.20;;;4.30;;
80698;SDS011;70062;51.658;5.658;2024-01-30T07:24:06;6.40;;;4.40;;
80698;SDS011;70062;51.658;5.658;2024-01-30T07:27:31;7.20;;;4.40;;
80698;SDS011;70062;51.658;5.658;2024-01-30T07:30:57;9.90;;;4.30;;
80698;SDS011;70062;51.658;5.658;2024-01-30T07:34:24;7.10;;;4.40;;
80698;SDS011;70062;51.658;5.658;2024-01-30T07:37:50;6.30;;;4.10;;
80698;SDS011;70062;51.658;5.658;2024-01-30T07:41:15;5.80;;;3.70;;
80698;SDS011;70062;51.658;5.658;2024-01-30T07:44:42;5.70;;;4.30;;
80698;SDS011;70062;51.658;5.658;2024-01-30T07:48:08;5.40;;;3.60;;
80698;SDS011;70062;51.658;5.658;2024-01-30T07:51:34;6.90;;;4.20;;
80698;SDS011;70062;51.658;5.658;2024-01-30T07:55:00;6.50;;;4.50;;
80698;SDS011;70062;51.658;5.658;2024-01-30T07:58:26;5.00;;;3.60;;
80698;SDS011;70062;51.658;5.658;2024-01-30T08:02:03;6.50;;;3.80;;
80698;SDS011;70062;51.658;5.658;2024-01-30T08:05:39;5.20;;;4.00;;
80698;SDS011;70062;51.658;5.658;2024-01-30T08:09:07;5.40;;;3.90;;
80698;SDS011;70062;51.658;5.658;2024-01-30T08:12:33;6.10;;;3.80;;
80698;SDS011;70062;51.658;5.658;2024-01-30T08:15:59;5.90;;;3.80;;
80698;SDS011;70062;51.658;5.658;2024-01-30T08:19:25;6.90;;;3.80;;
80698;SDS011;70062;51.658;5.658;2024-01-30T08:22:51;5.80;;;4.20;;
80698;SDS011;70062;51.658;5.658;2024-01-30T08:26:26;5.10;;;3.50;;
80698;SDS011;70062;51.658;5.658;2024-01-30T08:29:52;5.00;;;3.60;;
80698;SDS011;70062;51.658;5.658;2024-01-30T08:33:18;5.60;;;3.80;;
80698;SDS011;70062;51.658;5.658;2024-01-30T08:36:45;5.60;;;3.80;;
80698;SDS011;70062;51.658;5.658;2024-01-30T08:40:11;6.70;;;3.80;;
80698;SDS011;70062;51.658;5.658;2024-01-30T08:43:37;5.30;;;4.00;;
80698;SDS011;70062;51.658;5.658;2024-01-30T08:47:03;5.80;;;3.60;;
80698;SDS011;70062;51.658;5.658;2024-01-30T08:50:29;5.00;;;3.50;;
80698;SDS011;70062;51.658;5.658;2024-01-30T08:53:55;6.60;;;3.80;;
80698;SDS011;70062;51.658;5.658;2024-01-30T08:57:22;5.80;;;3.60;;
80698;SDS011;70062;51.658;5.658;2024-01-30T09:00:48;4.80;;;3.50;;
80698;SDS011;70062;51.658;5.658;2024-01-30T09:04:14;5.70;;;3.70;;
80698;SDS011;70062;51.658;5.658;2024-01-30T09:07:41;6.20;;;3.80;;
80698;SDS011;70062;51.658;5.658;2024-01-30T09:11:11;7.10;;;3.70;;
80698;SDS011;70062;51.658;5.658;2024-01-30T09:14:43;5.60;;;3.90;;
80698;SDS011;70062;51.658;5.658;2024-01-30T09:18:03;7.70;;;3.70;;
80698;SDS011;70062;51.658;5.658;2024-01-30T09:24:57;9.20;;;4.10;;
80698;SDS011;70062;51.658;5.658;2024-01-30T09:28:23;7.00;;;3.80;;
80698;SDS011;70062;51.658;5.658;2024-01-30T09:31:45;13.90;;;4.10;;
80698;SDS011;70062;51.658;5.658;2024-01-30T09:35:22;7.80;;;4.00;;
80698;SDS011;70062;51.658;5.658;2024-01-30T09:37:48;11.00;;;3.90;;
80698;SDS011;70062;51.658;5.658;2024-01-30T09:41:09;9.30;;;4.10;;
80698;SDS011;70062;51.658;5.658;2024-01-30T09:43:59;7.00;;;3.70;;
80698;SDS011;70062;51.658;5.658;2024-01-30T09:47:14;11.80;;;3.70;;
80698;SDS011;70062;51.658;5.658;2024-01-30T09:50:19;7.00;;;4.00;;
80698;SDS011;70062;51.658;5.658;2024-01-30T09:53:04;6.10;;;3.40;;
80698;SDS011;70062;51.658;5.658;2024-01-30T09:56:29;8.70;;;3.40;;
80698;SDS011;70062;51.658;5.658;2024-01-30T09:59:17;7.60;;;3.70;;
80698;SDS011;70062;51.658;5.658;2024-01-30T10:02:38;6.50;;;3.70;;
80698;SDS011;70062;51.658;5.658;2024-01-30T10:05:08;7.20;;;3.70;;
80698;SDS011;70062;51.658;5.658;2024-01-30T10:08:09;6.40;;;3.50;;
80698;SDS011;70062;51.658;5.658;2024-01-30T10:10:35;5.70;;;3.50;;
80698;SDS011;70062;51.658;5.658;2024-01-30T10:13:01;6.40;;;3.50;;
80698;SDS011;70062;51.658;5.658;2024-01-30T10:15:27;6.70;;;3.80;;
80698;SDS011;70062;51.658;5.658;2024-01-30T10:17:55;5.80;;;3.60;;
80698;SDS011;70062;51.658;5.658;2024-01-30T10:20:20;5.30;;;3.50;;
80698;SDS011;70062;51.658;5.658;2024-01-30T10:22:48;6.00;;;3.50;;
80698;SDS011;70062;51.658;5.658;2024-01-30T10:25:14;6.10;;;3.40;;
80698;SDS011;70062;51.658;5.658;2024-01-30T10:27:41;5.80;;;3.40;;
80698;SDS011;70062;51.658;5.658;2024-01-30T10:30:09;7.90;;;3.40;;
80698;SDS011;70062;51.658;5.658;2024-01-30T10:33:25;9.80;;;3.50;;
80698;SDS011;70062;51.658;5.658;2024-01-30T10:38:38;6.60;;;3.40;;
80698;SDS011;70062;51.658;5.658;2024-01-30T10:41:42;5.90;;;3.70;;
80698;SDS011;70062;51.658;5.658;2024-01-30T10:44:11;5.00;;;3.70;;
80698;SDS011;70062;51.658;5.658;2024-01-30T10:46:39;6.60;;;3.50;;
80698;SDS011;70062;51.658;5.658;2024-01-30T10:49:15;6.00;;;3.40;;
80698;SDS011;70062;51.658;5.658;2024-01-30T10:51:42;6.10;;;3.70;;
80698;SDS011;70062;51.658;5.658;2024-01-30T10:54:09;5.80;;;3.80;;
80698;SDS011;70062;51.658;5.658;2024-01-30T10:56:36;5.40;;;3.70;;
80698;SDS011;70062;51.658;5.658;2024-01-30T10:59:24;5.60;;;3.70;;
80698;SDS011;70062;51.658;5.658;2024-01-30T11:01:54;6.70;;;3.50;;
80698;SDS011;70062;51.658;5.658;2024-01-30T11:04:40;6.90;;;4.20;;
80698;SDS011;70062;51.658;5.658;2024-01-30T11:07:26;6.20;;;4.20;;
80698;SDS011;70062;51.658;5.658;2024-01-30T11:12:24;5.20;;;3.40;;
80698;SDS011;70062;51.658;5.658;2024-01-30T11:15:06;5.20;;;3.60;;
80698;SDS011;70062;51.658;5.658;2024-01-30T11:17:40;9.20;;;4.30;;
80698;SDS011;70062;51.658;5.658;2024-01-30T11:20:25;6.50;;;3.90;;
80698;SDS011;70062;51.658;5.658;2024-01-30T11:22:56;5.90;;;4.20;;
80698;SDS011;70062;51.658;5.658;2024-01-30T11:25:22;7.60;;;3.70;;
80698;SDS011;70062;51.658;5.658;2024-01-30T11:27:49;6.60;;;3.60;;
80698;SDS011;70062;51.658;5.658;2024-01-30T11:33:04;6.70;;;3.90;;
80698;SDS011;70062;51.658;5.658;2024-01-30T11:35:32;7.60;;;3.70;;
80698;SDS011;70062;51.658;5.658;2024-01-30T11:37:59;5.80;;;3.80;;
80698;SDS011;70062;51.658;5.658;2024-01-30T11:40:32;5.10;;;3.50;;
80698;SDS011;70062;51.658;5.658;2024-01-30T11:43:04;5.60;;;3.70;;
80698;SDS011;70062;51.658;5.658;2024-01-30T11:46:09;6.70;;;4.20;;
80698;SDS011;70062;51.658;5.658;2024-01-30T11:49:06;8.50;;;3.90;;
80698;SDS011;70062;51.658;5.658;2024-01-30T11:52:35;8.40;;;4.20;;
80698;SDS011;70062;51.658;5.658;2024-01-30T11:55:01;6.10;;;3.60;;
80698;SDS011;70062;51.658;5.658;2024-01-30T11:58:27;7.70;;;4.30;;
80698;SDS011;70062;51.658;5.658;2024-01-30T12:01:34;8.10;;;3.90;;
80698;SDS011;70062;51.658;5.658;2024-01-30T12:05:03;8.10;;;4.00;;
80698;SDS011;70062;51.658;5.658;2024-01-30T12:08:13;8.50;;;4.10;;
80698;SDS011;70062;51.658;5.658;2024-01-30T12:10:43;6.20;;;4.00;;
80698;SDS011;70062;51.658;5.658;2024-01-30T12:13:08;8.80;;;4.00;;
80698;SDS011;70062;51.658;5.658;2024-01-30T12:15:34;12.90;;;4.00;;
80698;SDS011;70062;51.658;5.658;2024-01-30T12:18:06;8.20;;;4.30;;
80698;SDS011;70062;51.658;5.658;2024-01-30T12:20:32;7.90;;;3.90;;
80698;SDS011;70062;51.658;5.658;2024-01-30T12:22:57;7.50;;;3.70;;
80698;SDS011;70062;51.658;5.658;2024-01-30T12:25:23;6.80;;;3.60;;
80698;SDS011;70062;51.658;5.658;2024-01-30T12:27:49;6.20;;;3.70;;
80698;SDS011;70062;51.658;5.658;2024-01-30T12:30:16;6.60;;;3.80;;
80698;SDS011;70062;51.658;5.658;2024-01-30T12:32:43;8.50;;;3.70;;
80698;SDS011;70062;51.658;5.658;2024-01-30T12:37:36;7.50;;;3.70;;
80698;SDS011;70062;51.658;5.658;2024-01-30T12:40:01;7.50;;;3.40;;
80698;SDS011;70062;51.658;5.658;2024-01-30T12:42:27;6.80;;;3.60;;
80698;SDS011;70062;51.658;5.658;2024-01-30T12:44:53;7.00;;;3.60;;
80698;SDS011;70062;51.658;5.658;2024-01-30T12:47:21;4.70;;;3.30;;
80698;SDS011;70062;51.658;5.658;2024-01-30T12:49:46;7.30;;;3.40;;
80698;SDS011;70062;51.658;5.658;2024-01-30T12:52:12;6.40;;;3.30;;
80698;SDS011;70062;51.658;5.658;2024-01-30T12:54:39;5.80;;;3.20;;
80698;SDS011;70062;51.658;5.658;2024-01-30T12:57:05;5.10;;;3.20;;
80698;SDS011;70062;51.658;5.658;2024-01-30T12:59:31;7.50;;;3.40;;
80698;SDS011;70062;51.658;5.658;2024-01-30T13:01:58;6.20;;;3.30;;
80698;SDS011;70062;51.658;5.658;2024-01-30T13:04:25;5.80;;;3.10;;
80698;SDS011;70062;51.658;5.658;2024-01-30T13:06:50;4.50;;;3.20;;
80698;SDS011;70062;51.658;5.658;2024-01-30T13:09:15;6.40;;;3.30;;
80698;SDS011;70062;51.658;5.658;2024-01-30T13:11:41;5.20;;;3.10;;
80698;SDS011;70062;51.658;5.658;2024-01-30T13:14:06;5.00;;;3.10;;
80698;SDS011;70062;51.658;5.658;2024-01-30T13:16:32;6.40;;;3.30;;
80698;SDS011;70062;51.658;5.658;2024-01-30T13:18:58;6.90;;;2.90;;
80698;SDS011;70062;51.658;5.658;2024-01-30T13:21:23;6.00;;;2.90;;
80698;SDS011;70062;51.658;5.658;2024-01-30T13:23:57;6.70;;;2.80;;
80698;SDS011;70062;51.658;5.658;2024-01-30T13:26:22;4.60;;;2.80;;
80698;SDS011;70062;51.658;5.658;2024-01-30T13:28:48;4.10;;;2.80;;
80698;SDS011;70062;51.658;5.658;2024-01-30T13:31:14;6.20;;;3.20;;
80698;SDS011;70062;51.658;5.658;2024-01-30T13:33:40;5.00;;;2.80;;
80698;SDS011;70062;51.658;5.658;2024-01-30T13:36:06;5.70;;;2.80;;
80698;SDS011;70062;51.658;5.658;2024-01-30T13:38:48;4.80;;;2.80;;
80698;SDS011;70062;51.658;5.658;2024-01-30T13:43:53;4.20;;;2.70;;
80698;SDS011;70062;51.658;5.658;2024-01-30T13:46:26;6.10;;;2.70;;
80698;SDS011;70062;51.658;5.658;2024-01-30T13:49:00;4.70;;;3.00;;
80698;SDS011;70062;51.658;5.658;2024-01-30T13:51:29;5.10;;;2.80;;
80698;SDS011;70062;51.658;5.658;2024-01-30T13:53:55;3.90;;;2.80;;
80698;SDS011;70062;51.658;5.658;2024-01-30T13:56:20;4.00;;;2.80;;
80698;SDS011;70062;51.658;5.658;2024-01-30T13:58:48;5.40;;;2.90;;
80698;SDS011;70062;51.658;5.658;2024-01-30T14:01:14;5.40;;;2.90;;
80698;SDS011;70062;51.658;5.658;2024-01-30T14:07:30;3.70;;;2.80;;
80698;SDS011;70062;51.658;5.658;2024-01-30T14:09:55;4.60;;;2.90;;
80698;SDS011;70062;51.658;5.658;2024-01-30T14:12:21;5.80;;;2.80;;
80698;SDS011;70062;51.658;5.658;2024-01-30T14:14:47;5.00;;;2.80;;
80698;SDS011;70062;51.658;5.658;2024-01-30T14:17:12;6.60;;;2.80;;
80698;SDS011;70062;51.658;5.658;2024-01-30T14:19:38;4.30;;;2.80;;
80698;SDS011;70062;51.658;5.658;2024-01-30T14:22:03;5.70;;;2.90;;
80698;SDS011;70062;51.658;5.658;2024-01-30T14:24:29;5.70;;;2.90;;
80698;SDS011;70062;51.658;5.658;2024-01-30T14:26:57;4.30;;;2.70;;
80698;SDS011;70062;51.658;5.658;2024-01-30T14:29:24;6.40;;;2.60;;
80698;SDS011;70062;51.658;5.658;2024-01-30T14:31:50;10.10;;;2.60;;
80698;SDS011;70062;51.658;5.658;2024-01-30T14:34:35;7.40;;;2.60;;
80698;SDS011;70062;51.658;5.658;2024-01-30T14:37:01;6.10;;;2.70;;
80698;SDS011;70062;51.658;5.658;2024-01-30T14:39:34;6.90;;;2.80;;
80698;SDS011;70062;51.658;5.658;2024-01-30T14:42:32;7.80;;;2.60;;
80698;SDS011;70062;51.658;5.658;2024-01-30T14:44:57;8.20;;;2.80;;
80698;SDS011;70062;51.658;5.658;2024-01-30T14:47:23;7.00;;;2.80;;
80698;SDS011;70062;51.658;5.658;2024-01-30T14:49:49;7.50;;;2.80;;
80698;SDS011;70062;51.658;5.658;2024-01-30T14:52:14;8.20;;;2.70;;
80698;SDS011;70062;51.658;5.658;2024-01-30T14:54:40;8.40;;;2.80;;
80698;SDS011;70062;51.658;5.658;2024-01-30T14:57:05;7.00;;;2.60;;
80698;SDS011;70062;51.658;5.658;2024-01-30T14:59:31;7.80;;;2.80;;
80698;SDS011;70062;51.658;5.658;2024-01-30T15:01:56;6.80;;;2.30;;
80698;SDS011;70062;51.658;5.658;2024-01-30T15:04:22;5.90;;;2.50;;
80698;SDS011;70062;51.658;5.658;2024-01-30T15:06:47;5.40;;;2.50;;
80698;SDS011;70062;51.658;5.658;2024-01-30T15:09:14;6.50;;;2.60;;
80698;SDS011;70062;51.658;5.658;2024-01-30T15:11:46;5.90;;;2.90;;
80698;SDS011;70062;51.658;5.658;2024-01-30T15:14:12;7.10;;;2.80;;
80698;SDS011;70062;51.658;5.658;2024-01-30T15:16:37;4.00;;;2.50;;
80698;SDS011;70062;51.658;5.658;2024-01-30T15:19:03;7.50;;;2.70;;
80698;SDS011;70062;51.658;5.658;2024-01-30T15:21:30;5.60;;;2.50;;
80698;SDS011;70062;51.658;5.658;2024-01-30T15:23:55;5.20;;;2.50;;
80698;SDS011;70062;51.658;5.658;2024-01-30T15:26:21;6.30;;;2.60;;
80698;SDS011;70062;51.658;5.658;2024-01-30T15:28:47;5.80;;;2.60;;
80698;SDS011;70062;51.658;5.658;2024-01-30T15:38:05;5.10;;;2.60;;
80698;SDS011;70062;51.658;5.658;2024-01-30T15:40:33;4.40;;;2.40;;
80698;SDS011;70062;51.658;5.658;2024-01-30T15:42:59;5.90;;;2.50;;
80698;SDS011;70062;51.658;5.658;2024-01-30T15:45:25;4.40;;;2.40;;
80698;SDS011;70062;51.658;5.658;2024-01-30T15:47:50;6.20;;;2.40;;
80698;SDS011;70062;51.658;5.658;2024-01-30T15:50:17;8.10;;;2.80;;
80698;SDS011;70062;51.658;5.658;2024-01-30T15:52:42;8.30;;;2.70;;
80698;SDS011;70062;51.658;5.658;2024-01-30T15:55:32;7.00;;;2.60;;
80698;SDS011;70062;51.658;5.658;2024-01-30T15:59:04;5.70;;;2.30;;
80698;SDS011;70062;51.658;5.658;2024-01-30T16:02:29;9.10;;;2.80;;
80698;SDS011;70062;51.658;5.658;2024-01-30T16:05:58;8.50;;;2.50;;
80698;SDS011;70062;51.658;5.658;2024-01-30T16:09:29;9.10;;;2.60;;
80698;SDS011;70062;51.658;5.658;2024-01-30T16:12:55;6.20;;;2.60;;
80698;SDS011;70062;51.658;5.658;2024-01-30T16:16:21;6.30;;;2.70;;
80698;SDS011;70062;51.658;5.658;2024-01-30T16:19:48;7.60;;;2.60;;
80698;SDS011;70062;51.658;5.658;2024-01-30T16:23:14;6.60;;;2.60;;
80698;SDS011;70062;51.658;5.658;2024-01-30T16:26:23;11.70;;;2.70;;
80698;SDS011;70062;51.658;5.658;2024-01-30T16:29:49;11.80;;;2.80;;
80698;SDS011;70062;51.658;5.658;2024-01-30T16:32:14;16.00;;;3.00;;
80698;SDS011;70062;51.658;5.658;2024-01-30T16:35:40;12.00;;;3.10;;
80698;SDS011;70062;51.658;5.658;2024-01-30T16:38:23;12.70;;;3.10;;
80698;SDS011;70062;51.658;5.658;2024-01-30T16:41:49;14.70;;;3.20;;
80698;SDS011;70062;51.658;5.658;2024-01-30T16:45:15;12.20;;;2.80;;
80698;SDS011;70062;51.658;5.658;2024-01-30T16:47:41;11.90;;;3.10;;
80698;SDS011;70062;51.658;5.658;2024-01-30T16:51:08;9.90;;;3.00;;
80698;SDS011;70062;51.658;5.658;2024-01-30T16:54:34;9.40;;;3.00;;
80698;SDS011;70062;51.658;5.658;2024-01-30T16:58:01;10.50;;;3.20;;
80698;SDS011;70062;51.658;5.658;2024-01-30T17:01:07;11.80;;;3.10;;
80698;SDS011;70062;51.658;5.658;2024-01-30T17:04:33;13.40;;;2.90;;
80698;SDS011;70062;51.658;5.658;2024-01-30T17:07:59;9.50;;;3.40;;
80698;SDS011;70062;51.658;5.658;2024-01-30T17:14:32;13.00;;;2.90;;
80698;SDS011;70062;51.658;5.658;2024-01-30T17:17:59;10.00;;;3.00;;
80698;SDS011;70062;51.658;5.658;2024-01-30T17:21:26;10.90;;;3.80;;
80698;SDS011;70062;51.658;5.658;2024-01-30T17:24:53;6.70;;;2.80;;
80698;SDS011;70062;51.658;5.658;2024-01-30T17:28:25;9.10;;;2.90;;
80698;SDS011;70062;51.658;5.658;2024-01-30T17:31:56;7.80;;;3.30;;
80698;SDS011;70062;51.658;5.658;2024-01-30T17:35:24;7.40;;;3.20;;
80698;SDS011;70062;51.658;5.658;2024-01-30T17:38:56;9.00;;;3.20;;
80698;SDS011;70062;51.658;5.658;2024-01-30T17:42:34;9.50;;;2.80;;
80698;SDS011;70062;51.658;5.658;2024-01-30T17:47:07;8.10;;;3.40;;
80698;SDS011;70062;51.658;5.658;2024-01-30T17:51:50;10.60;;;3.40;;
80698;SDS011;70062;51.658;5.658;2024-01-30T17:55:59;9.10;;;3.70;;
80698;SDS011;70062;51.658;5.658;2024-01-30T18:00:25;8.20;;;3.40;;
80698;SDS011;70062;51.658;5.658;2024-01-30T18:04:37;6.50;;;3.40;;
80698;SDS011;70062;51.658;5.658;2024-01-30T18:08:08;9.70;;;3.30;;
80698;SDS011;70062;51.658;5.658;2024-01-30T18:11:39;8.80;;;3.60;;
80698;SDS011;70062;51.658;5.658;2024-01-30T18:15:13;8.10;;;3.00;;
80698;SDS011;70062;51.658;5.658;2024-01-30T18:18:43;7.70;;;2.70;;
80698;SDS011;70062;51.658;5.658;2024-01-30T18:50:25;5.60;;;3.30;;
80698;SDS011;70062;51.658;5.658;2024-01-30T19:14:04;8.20;;;3.90;;
80698;SDS011;70062;51.658;5.658;2024-01-30T20:27:56;8.50;;;3.60;;
80698;SDS011;70062;51.658;5.658;2024-01-30T20:31:58;6.30;;;3.90;;
80698;SDS011;70062;51.658;5.658;2024-01-30T20:35:37;8.80;;;4.10;;
80698;SDS011;70062;51.658;5.658;2024-01-30T20:46:48;7.20;;;3.70;;
80698;SDS011;70062;51.658;5.658;2024-01-30T20:50:19;9.90;;;4.50;;
80698;SDS011;70062;51.658;5.658;2024-01-30T20:53:45;7.50;;;4.20;;
80698;SDS011;70062;51.658;5.658;2024-01-30T20:57:12;8.80;;;4.40;;
80698;SDS011;70062;51.658;5.658;2024-01-30T21:01:00;7.40;;;4.30;;
80698;SDS011;70062;51.658;5.658;2024-01-30T21:04:48;6.30;;;3.90;;
80698;SDS011;70062;51.658;5.658;2024-01-30T21:08:23;5.80;;;3.80;;
80698;SDS011;70062;51.658;5.658;2024-01-30T21:11:50;6.60;;;4.10;;
80698;SDS011;70062;51.658;5.658;2024-01-30T21:15:18;7.20;;;3.90;;
80698;SDS011;70062;51.658;5.658;2024-01-30T21:18:45;6.10;;;4.00;;
80698;SDS011;70062;51.658;5.658;2024-01-30T21:22:13;6.40;;;3.70;;
80698;SDS011;70062;51.658;5.658;2024-01-30T21:25:52;8.30;;;3.60;;
80698;SDS011;70062;51.658;5.658;2024-01-30T21:29:21;5.60;;;3.80;;
80698;SDS011;70062;51.658;5.658;2024-01-30T21:33:01;8.20;;;3.60;;
80698;SDS011;70062;51.658;5.658;2024-01-30T21:36:43;4.80;;;3.50;;
80698;SDS011;70062;51.658;5.658;2024-01-30T21:40:20;4.90;;;3.50;;
80698;SDS011;70062;51.658;5.658;2024-01-30T21:44:48;5.60;;;3.90;;
80698;SDS011;70062;51.658;5.658;2024-01-30T21:48:29;7.40;;;3.90;;
80698;SDS011;70062;51.658;5.658;2024-01-30T21:52:12;6.00;;;3.50;;
80698;SDS011;70062;51.658;5.658;2024-01-30T21:55:41;5.40;;;3.80;;
80698;SDS011;70062;51.658;5.658;2024-01-30T21:59:09;6.80;;;3.60;;
80698;SDS011;70062;51.658;5.658;2024-01-30T22:02:51;5.70;;;3.60;;
80698;SDS011;70062;51.658;5.658;2024-01-30T22:06:19;5.50;;;3.40;;
80698;SDS011;70062;51.658;5.658;2024-01-30T22:10:03;6.50;;;3.70;;
80698;SDS011;70062;51.658;5.658;2024-01-30T22:14:06;6.30;;;3.90;;
80698;SDS011;70062;51.658;5.658;2024-01-30T22:17:33;6.20;;;3.90;;
80698;SDS011;70062;51.658;5.658;2024-01-30T22:20:59;5.90;;;3.80;;
80698;SDS011;70062;51.658;5.658;2024-01-30T22:24:26;7.10;;;3.80;;
80698;SDS011;70062;51.658;5.658;2024-01-30T22:27:53;6.50;;;3.80;;
80698;SDS011;70062;51.658;5.658;2024-01-30T22:31:19;6.30;;;3.70;;
80698;SDS011;70062;51.658;5.658;2024-01-30T22:34:53;6.00;;;3.70;;
80698;SDS011;70062;51.658;5.658;2024-01-30T22:38:20;8.50;;;4.00;;
80698;SDS011;70062;51.658;5.658;2024-01-30T22:45:09;6.70;;;3.90;;
80698;SDS011;70062;51.658;5.658;2024-01-30T22:48:35;7.80;;;3.90;;
80698;SDS011;70062;51.658;5.658;2024-01-30T22:58:50;5.00;;;3.50;;
80698;SDS011;70062;51.658;5.658;2024-01-30T23:08:33;5.60;;;3.90;;
80698;SDS011;70062;51.658;5.658;2024-01-30T23:12:12;4.90;;;3.50;;
80698;SDS011;70062;51.658;5.658;2024-01-30T23:15:39;6.40;;;3.70;;
80698;SDS011;70062;51.658;5.658;2024-01-30T23:19:17;7.30;;;3.70;;
80698;SDS011;70062;51.658;5.658;2024-01-30T23:23:04;5.60;;;3.60;;